Time;durP1;ratioP1;P1;durP2;ratioP2;P2;SDS_P1;SDS_P2;PMS_P1;PMS_P2;Temp;Humidity;BMP_temperature;BMP_pressure;BME280_temperature;BME280_humidity;BME280_pressure;Samples;Min_cycle;Max_cycle;Signal;HPM_P1;HPM_P2
2024/05/03 00:02:47;;;;;;;2.25;0.98;;;21.90;71.30;;;;;;6638373;43;110534;-76
2024/05/03 00:07:55;;;;;;;3.17;1.20;;;21.90;71.60;;;;;;6638741;43;110979;-73
2024/05/03 00:13:00;;;;;;;2.30;1.13;;;21.90;71.40;;;;;;6640199;43;110581;-74
2024/05/03 00:18:06;;;;;;;2.85;1.25;;;21.90;71.20;;;;;;6638641;43;110794;-78
2024/05/03 00:23:14;;;;;;;2.92;1.20;;;21.80;71.20;;;;;;6640509;43;111333;-74
2024/05/03 00:28:19;;;;;;;3.00;1.20;;;21.80;71.20;;;;;;6646912;43;112859;-73
2024/05/03 00:33:25;;;;;;;3.17;1.17;;;21.90;71.40;;;;;;6640971;43;110988;-75
2024/05/03 00:38:33;;;;;;;3.55;1.50;;;21.80;71.50;;;;;;6644862;43;112209;-77
2024/05/03 00:43:38;;;;;;;3.30;1.10;;;21.80;71.60;;;;;;6638689;43;110828;-77
2024/05/03 00:48:44;;;;;;;3.00;1.30;;;21.80;71.20;;;;;;6641728;43;111587;-75
2024/05/03 00:53:53;;;;;;;2.25;1.10;;;21.90;71.30;;;;;;6639378;43;110966;-75
2024/05/03 00:58:59;;;;;;;3.28;1.10;;;21.80;71.20;;;;;;6638020;43;114237;-77
2024/05/03 01:04:06;;;;;;;3.40;1.20;;;21.80;71.30;;;;;;6637788;43;114515;-73
2024/05/03 01:09:14;;;;;;;3.07;1.47;;;21.80;71.50;;;;;;6638633;43;114717;-77
2024/05/03 01:14:19;;;;;;;3.58;1.30;;;21.80;71.60;;;;;;6639943;43;113101;-73
2024/05/03 01:19:24;;;;;;;2.67;1.20;;;21.80;71.40;;;;;;6644303;43;115371;-72
2024/05/03 01:24:32;;;;;;;3.22;1.38;;;21.80;71.30;;;;;;6638492;43;115414;-72
2024/05/03 01:29:38;;;;;;;3.55;1.27;;;21.80;71.30;;;;;;6638135;43;115871;-73
2024/05/03 01:34:43;;;;;;;3.33;1.20;;;21.80;71.30;;;;;;6639334;43;115415;-73
2024/05/03 01:39:51;;;;;;;3.50;1.40;;;21.80;71.30;;;;;;6638887;43;115172;-73
2024/05/03 01:44:56;;;;;;;3.47;1.25;;;21.80;71.20;;;;;;6637015;43;110495;-71
2024/05/03 01:50:01;;;;;;;3.28;1.20;;;21.80;71.20;;;;;;6639807;43;112133;-71
2024/05/03 01:55:09;;;;;;;3.78;1.25;;;21.80;71.30;;;;;;6635525;43;110756;-71
2024/05/03 02:00:15;;;;;;;3.65;1.20;;;21.80;71.20;;;;;;6637950;43;110904;-73
2024/05/03 02:05:21;;;;;;;2.83;1.20;;;21.80;71.10;;;;;;6640541;43;111497;-72
2024/05/03 02:10:29;;;;;;;2.67;1.20;;;21.70;71.00;;;;;;6639149;43;110470;-74
2024/05/03 02:15:34;;;;;;;3.45;1.30;;;21.70;71.10;;;;;;6639256;43;111357;-72
2024/05/03 02:20:39;;;;;;;3.00;1.17;;;21.80;71.20;;;;;;6642635;43;111029;-75
2024/05/03 02:25:47;;;;;;;3.47;1.25;;;21.80;71.00;;;;;;6641728;43;111225;-74
2024/05/03 02:30:52;;;;;;;3.97;1.42;;;21.70;71.00;;;;;;6648252;43;112722;-74
2024/05/03 02:35:58;;;;;;;3.75;1.08;;;21.70;71.10;;;;;;6638449;43;110294;-73
2024/05/03 02:41:06;;;;;;;3.13;1.20;;;21.70;71.10;;;;;;6619187;43;110395;-72
2024/05/03 02:46:11;;;;;;;3.08;1.20;;;21.70;71.00;;;;;;6640590;43;114292;-72
2024/05/03 02:51:20;;;;;;;3.17;1.30;;;21.70;70.90;;;;;;6647207;43;115678;-73
2024/05/03 02:56:28;;;;;;;3.22;1.27;;;21.70;71.00;;;;;;6638479;43;114593;-72
2024/05/03 03:01:33;;;;;;;3.15;1.20;;;21.70;71.10;;;;;;6639449;43;113333;-73
2024/05/03 03:06:39;;;;;;;3.97;1.17;;;21.70;71.00;;;;;;6648068;43;114845;-72
2024/05/03 03:11:49;;;;;;;2.72;1.00;;;21.70;71.00;;;;;;6639793;43;114705;-74
2024/05/03 03:16:55;;;;;;;4.30;1.58;;;21.70;71.00;;;;;;6642997;43;116995;-72
2024/05/03 03:22:03;;;;;;;3.22;1.30;;;21.70;71.10;;;;;;6638886;43;113724;-72
2024/05/03 03:27:11;;;;;;;3.70;1.30;;;21.60;71.10;;;;;;6639307;43;114138;-71
2024/05/03 03:32:17;;;;;;;3.70;1.40;;;21.60;71.10;;;;;;6638373;43;110542;-71
2024/05/03 03:37:23;;;;;;;3.83;1.30;;;21.70;71.00;;;;;;6637362;43;110817;-72
2024/05/03 03:42:31;;;;;;;3.78;1.20;;;21.60;70.90;;;;;;6637884;43;110964;-72
2024/05/03 03:47:40;;;;;;;3.95;1.40;;;21.60;71.00;;;;;;6640262;43;110909;-72
2024/05/03 03:52:45;;;;;;;4.22;1.20;;;21.60;71.10;;;;;;6638445;43;110734;-72
2024/05/03 03:57:56;;;;;;;3.00;1.20;;;21.60;71.10;;;;;;6647691;43;112360;-74
2024/05/03 04:03:02;;;;;;;3.45;1.10;;;21.60;71.70;;;;;;6644602;43;112101;-77
2024/05/03 04:08:10;;;;;;;4.38;1.30;;;21.60;71.10;;;;;;6640504;43;111365;-74
2024/05/03 04:13:18;;;;;;;3.25;1.20;;;21.60;71.10;;;;;;6638540;43;110539;-76
2024/05/03 04:18:23;;;;;;;3.90;1.20;;;21.60;71.00;;;;;;6638243;43;110279;-77
2024/05/03 04:23:28;;;;;;;4.35;1.33;;;21.60;70.90;;;;;;6644112;43;112326;-74
2024/05/03 04:28:36;;;;;;;3.58;1.30;;;21.60;71.00;;;;;;6637811;43;110233;-77
2024/05/03 04:33:45;;;;;;;4.40;1.20;;;21.60;71.10;;;;;;6640066;43;110490;-75
2024/05/03 04:38:51;;;;;;;4.47;1.42;;;21.60;71.00;;;;;;6646128;43;117107;-77
2024/05/03 04:43:59;;;;;;;4.30;1.30;;;21.60;70.90;;;;;;6638553;43;115217;-79
2024/05/03 04:49:07;;;;;;;3.13;1.25;;;21.60;71.00;;;;;;6645265;43;114745;-79
2024/05/03 04:54:12;;;;;;;4.78;1.35;;;21.60;71.10;;;;;;6640717;43;114540;-78
2024/05/03 04:59:20;;;;;;;3.38;1.15;;;21.60;71.20;;;;;;6630040;43;117920;-77
2024/05/03 05:04:25;;;;;;;4.65;1.40;;;21.50;71.20;;;;;;6637539;43;114371;-79
2024/05/03 05:09:31;;;;;;;4.93;1.40;;;21.60;71.10;;;;;;6639228;43;115126;-76
2024/05/03 05:14:38;;;;;;;3.15;1.00;;;21.60;71.00;;;;;;6639854;43;114873;-79
2024/05/03 05:19:44;;;;;;;3.55;1.10;;;21.50;71.00;;;;;;6636088;43;110364;-78
2024/05/03 05:24:50;;;;;;;3.80;1.30;;;21.60;71.10;;;;;;6645716;43;110945;-76
2024/05/03 05:29:57;;;;;;;4.22;1.27;;;21.50;71.20;;;;;;6635432;43;110466;-76
2024/05/03 05:35:03;;;;;;;3.33;1.20;;;21.60;71.30;;;;;;6611496;43;110293;-78
2024/05/03 05:40:10;;;;;;;3.42;1.10;;;21.60;71.10;;;;;;6638769;43;111229;-79
2024/05/03 05:45:18;;;;;;;;;;;21.60;71.10;;;;;;6641970;43;110607;-77
2024/05/03 05:50:23;;;;;;;;;;;21.50;71.10;;;;;;6642451;43;112201;-77
2024/05/03 05:55:28;;;;;;;3.20;1.15;;;21.50;71.20;;;;;;6662521;42;112893;-75
2024/05/03 06:00:39;;;;;;;4.57;1.23;;;21.50;71.30;;;;;;6638588;43;111320;-78
2024/05/03 06:05:46;;;;;;;2.75;1.00;;;21.50;71.40;;;;;;6639855;43;112205;-78
2024/05/03 06:10:51;;;;;;;3.73;1.03;;;21.50;71.10;;;;;;6653757;43;110354;-72
2024/05/03 06:15:59;;;;;;;4.80;1.23;;;21.50;71.90;;;;;;6646010;43;113232;-77
2024/05/03 06:21:06;;;;;;;3.15;1.10;;;21.50;71.20;;;;;;6640715;43;110492;-77
2024/05/03 06:26:11;;;;;;;4.47;1.23;;;21.50;71.20;;;;;;6637922;43;113777;-77
2024/05/03 06:31:19;;;;;;;4.35;1.13;;;21.50;71.00;;;;;;6636318;43;114939;-77
2024/05/03 06:36:24;;;;;;;4.18;1.30;;;21.50;71.00;;;;;;6636225;43;112850;-77
2024/05/03 06:41:30;;;;;;;3.75;1.23;;;21.50;71.20;;;;;;6639301;43;114791;-79
2024/05/03 06:46:38;;;;;;;3.75;1.20;;;21.50;71.20;;;;;;6646137;43;117833;-76
2024/05/03 06:51:43;;;;;;;2.78;1.00;;;21.50;71.00;;;;;;6643259;43;115311;-79
2024/05/03 06:56:49;;;;;;;4.47;1.17;;;21.50;71.10;;;;;;6636084;43;115033;-76
2024/05/03 07:01:58;;;;;;;4.28;1.27;;;21.50;71.10;;;;;;6636616;43;114526;-77
2024/05/03 07:07:04;;;;;;;3.58;1.05;;;21.50;71.00;;;;;;6638642;43;115051;-78
2024/05/03 07:12:09;;;;;;;3.88;1.20;;;21.50;71.00;;;;;;6644784;43;112372;-77
2024/05/03 07:17:17;;;;;;;3.90;1.00;;;21.50;71.00;;;;;;6637930;43;110071;-76
2024/05/03 07:22:23;;;;;;;3.20;0.90;;;21.50;71.10;;;;;;6635912;43;110603;-79
2024/05/03 07:27:28;;;;;;;3.22;1.00;;;21.50;71.20;;;;;;6639398;43;111731;-76
2024/05/03 07:32:36;;;;;;;2.85;1.08;;;21.50;71.20;;;;;;6646160;43;112254;-76
2024/05/03 07:37:42;;;;;;;2.63;1.00;;;21.50;71.00;;;;;;6637631;43;111174;-78
2024/05/03 07:42:47;;;;;;;2.30;0.90;;;21.50;70.90;;;;;;6637298;43;110901;-78
2024/05/03 07:47:55;;;;;;;2.53;0.93;;;21.40;71.00;;;;;;6638146;43;109977;-77
2024/05/03 07:53:01;;;;;;;2.88;0.93;;;21.50;71.10;;;;;;6643682;43;113013;-76
2024/05/03 07:58:08;;;;;;;5.20;1.10;;;21.50;71.00;;;;;;6635980;43;110975;-75
2024/05/03 08:03:17;;;;;;;2.73;0.90;;;21.50;71.00;;;;;;6636535;43;111782;-79
2024/05/03 08:08:22;;;;;;;2.72;0.88;;;21.50;71.00;;;;;;6639405;43;111288;-75
2024/05/03 08:13:27;;;;;;;3.20;1.00;;;21.50;71.10;;;;;;6636202;43;114243;-72
2024/05/03 08:18:36;;;;;;;3.85;1.10;;;21.50;71.00;;;;;;6642892;43;113662;-78
2024/05/03 08:23:42;;;;;;;2.88;0.90;;;21.50;70.90;;;;;;6641499;43;113294;-74
2024/05/03 08:28:47;;;;;;;2.63;0.90;;;21.50;71.00;;;;;;6679971;43;114643;-74
2024/05/03 08:33:55;;;;;;;2.92;0.98;;;21.50;71.00;;;;;;6641319;43;113310;-77
2024/05/03 08:39:01;;;;;;;4.30;1.00;;;21.50;70.80;;;;;;6637689;43;114848;-77
2024/05/03 08:44:26;;;;;;;2.50;0.80;;;21.50;70.80;;;;;;6638592;43;114536;-76
2024/05/03 08:49:48;;;;;;;2.53;0.90;;;21.50;70.90;;;;;;6637659;43;113809;-79
2024/05/03 08:54:55;;;;;;;3.40;0.93;;;21.50;70.90;;;;;;6640257;43;115282;-78
2024/05/03 09:00:00;;;;;;;2.45;0.90;;;21.50;71.00;;;;;;6635286;43;111065;-77
2024/05/03 09:05:11;;;;;;;2.47;0.90;;;21.50;71.00;;;;;;6639102;43;111437;-78
2024/05/03 09:10:17;;;;;;;4.20;0.90;;;21.50;70.90;;;;;;6637221;43;111523;-78
2024/05/03 09:15:26;;;;;;;1.98;0.75;;;21.50;70.80;;;;;;6638588;43;110392;-77
2024/05/03 09:20:35;;;;;;;2.47;0.70;;;21.50;71.00;;;;;;6643584;43;112336;-77
2024/05/03 09:25:41;;;;;;;3.50;0.98;;;21.50;71.00;;;;;;6635301;43;110625;-77
2024/05/03 09:30:46;;;;;;;3.75;0.95;;;21.50;71.10;;;;;;6638086;43;111121;-76
2024/05/03 09:35:54;;;;;;;4.15;1.17;;;21.50;71.10;;;;;;6636576;43;110424;-77
2024/05/03 09:41:01;;;;;;;2.90;0.80;;;21.50;70.90;;;;;;6634746;43;110641;-75
2024/05/03 09:46:07;;;;;;;4.32;0.90;;;21.50;71.00;;;;;;6634527;43;111420;-77
2024/05/03 09:51:19;;;;;;;3.10;0.80;;;21.50;71.00;;;;;;6641718;43;113258;-73
2024/05/03 09:56:26;;;;;;;2.88;0.80;;;21.50;71.00;;;;;;6637641;43;111800;-76
2024/05/03 10:01:33;;;;;;;2.87;0.83;;;21.40;70.80;;;;;;6643617;43;112476;-75
2024/05/03 10:06:46;;;;;;;2.60;0.80;;;21.40;70.80;;;;;;6639878;43;115277;-76
2024/05/03 10:11:54;;;;;;;3.10;1.02;;;21.50;70.90;;;;;;6637675;43;113376;-76
2024/05/03 10:17:00;;;;;;;2.78;0.80;;;21.50;70.90;;;;;;6635070;43;114903;-77
2024/05/03 10:22:08;;;;;;;1.92;0.80;;;21.50;70.60;;;;;;6637018;43;114688;-75
2024/05/03 10:27:14;;;;;;;2.28;0.77;;;21.50;70.50;;;;;;6638946;43;115440;-76
2024/05/03 10:32:40;;;;;;;2.35;0.82;;;21.50;70.60;;;;;;6637753;43;115165;-77
2024/05/03 10:37:49;;;;;;;3.35;0.80;;;21.60;70.60;;;;;;6637460;43;114158;-72
2024/05/03 10:42:54;;;;;;;2.65;0.70;;;21.60;70.40;;;;;;6650798;43;115970;-75
2024/05/03 10:48:01;;;;;;;2.25;0.80;;;21.60;70.40;;;;;;6645310;43;112496;-74
2024/05/03 10:53:09;;;;;;;2.10;0.80;;;21.60;70.40;;;;;;6637076;43;111566;-74
2024/05/03 10:58:15;;;;;;;3.20;0.90;;;21.50;70.40;;;;;;6635604;43;110971;-77
2024/05/03 11:03:23;;;;;;;4.07;0.95;;;21.60;70.40;;;;;;6637241;43;110940;-77
2024/05/03 11:08:30;;;;;;;;;;;21.60;70.40;;;;;;6637436;43;110284;-75
2024/05/03 11:13:37;;;;;;;3.25;0.98;;;21.50;70.40;;;;;;6638226;43;110866;-73
2024/05/03 11:18:42;;;;;;;2.00;0.80;;;21.50;70.40;;;;;;6643202;43;112789;-75
2024/05/03 11:23:51;;;;;;;2.25;0.77;;;21.50;70.30;;;;;;6636234;43;110031;-75
2024/05/03 11:28:57;;;;;;;2.38;0.80;;;21.50;70.50;;;;;;6638561;43;111186;-74
2024/05/03 11:34:05;;;;;;;2.47;0.80;;;21.50;70.40;;;;;;6637096;43;111514;-72
2024/05/03 11:39:17;;;;;;;3.35;0.80;;;21.50;70.50;;;;;;6642438;43;111862;-75
2024/05/03 11:44:22;;;;;;;1.88;0.70;;;21.50;70.30;;;;;;6638163;43;111792;-73
2024/05/03 11:49:28;;;;;;;1.67;0.77;;;21.50;70.30;;;;;;6636916;43;111154;-73
2024/05/03 11:54:37;;;;;;;2.17;0.63;;;21.50;70.40;;;;;;6635442;43;113750;-72
2024/05/03 11:59:42;;;;;;;1.67;0.60;;;21.60;70.40;;;;;;6633789;43;113495;-74
2024/05/03 12:04:47;;;;;;;1.73;0.70;;;21.50;70.20;;;;;;6635701;43;114290;-75
2024/05/03 12:09:55;;;;;;;2.85;0.82;;;21.50;70.20;;;;;;6636984;43;113263;-75
2024/05/03 12:15:00;;;;;;;2.80;0.75;;;21.50;70.20;;;;;;6634966;43;115893;-76
2024/05/03 12:20:07;;;;;;;2.47;0.60;;;21.60;70.20;;;;;;6633604;43;115592;-74
2024/05/03 12:25:15;;;;;;;2.47;0.70;;;21.60;70.00;;;;;;6638542;43;115284;-76
2024/05/03 12:30:21;;;;;;;2.83;0.70;;;21.60;70.10;;;;;;6634676;43;115494;-77
2024/05/03 12:35:26;;;;;;;1.95;0.73;;;21.60;70.20;;;;;;6636271;43;115882;-73
2024/05/03 12:40:34;;;;;;;2.80;0.80;;;21.60;70.10;;;;;;6638014;43;111265;-75
2024/05/03 12:45:40;;;;;;;2.92;0.90;;;21.60;69.90;;;;;;6635927;43;110851;-77
2024/05/03 12:50:45;;;;;;;2.55;0.80;;;21.60;70.00;;;;;;6633560;43;110190;-76
2024/05/03 12:55:53;;;;;;;2.40;0.75;;;21.60;70.00;;;;;;6643429;43;112884;-76
2024/05/03 13:00:59;;;;;;;1.90;0.70;;;21.60;70.00;;;;;;6637629;43;112365;-76
2024/05/03 13:06:04;;;;;;;3.17;0.80;;;21.60;69.90;;;;;;6633964;43;110226;-73
2024/05/03 13:16:33;;;;;;;2.88;0.80;;;21.60;70.10;;;;;;6635677;43;111302;-76
2024/05/03 13:21:39;;;;;;;2.15;0.70;;;21.60;70.00;;;;;;6634613;43;110751;-70
2024/05/03 13:26:47;;;;;;;2.60;0.82;;;21.70;70.00;;;;;;6633643;43;110549;-75
2024/05/03 13:31:53;;;;;;;2.35;0.80;;;21.60;69.00;;;;;;6633282;43;110659;-76
2024/05/03 13:36:58;;;;;;;4.10;0.90;;;21.60;67.60;;;;;;6634550;43;111036;-72
2024/05/03 13:42:07;;;;;;;4.40;0.90;;;21.70;66.00;;;;;;6641093;43;116803;-70
2024/05/03 13:47:12;;;;;;;3.35;1.00;;;21.60;66.30;;;;;;6634821;43;113278;-74
2024/05/03 13:52:17;;;;;;;3.72;0.80;;;21.60;65.70;;;;;;6633864;43;114410;-71
2024/05/03 13:57:25;;;;;;;3.25;0.90;;;21.60;64.80;;;;;;6636045;43;116834;-77
2024/05/03 14:02:30;;;;;;;3.38;0.77;;;21.60;63.90;;;;;;6644675;43;116757;-71
2024/05/03 14:07:36;;;;;;;2.40;0.77;;;21.60;63.50;;;;;;6635393;43;114149;-73
2024/05/03 14:12:44;;;;;;;3.83;0.95;;;21.60;64.10;;;;;;6635142;43;114126;-77
2024/05/03 14:17:50;;;;;;;2.92;0.85;;;21.60;63.90;;;;;;6634843;43;114558;-72
2024/05/03 14:22:55;;;;;;;3.55;0.80;;;21.60;63.90;;;;;;6637308;43;114948;-75
2024/05/03 14:28:05;;;;;;;2.80;0.70;;;21.60;63.60;;;;;;6635648;43;111090;-74
2024/05/03 14:33:10;;;;;;;3.03;0.80;;;21.60;63.50;;;;;;6635659;43;111267;-77
2024/05/03 14:38:16;;;;;;;3.22;0.90;;;21.60;63.30;;;;;;6634597;43;110474;-79
2024/05/03 14:43:24;;;;;;;2.70;0.80;;;21.70;62.90;;;;;;6639136;43;110673;-75
2024/05/03 14:48:29;;;;;;;3.25;0.82;;;21.70;62.30;;;;;;6634932;43;110958;-70
2024/05/03 14:53:35;;;;;;;3.17;0.80;;;21.70;62.10;;;;;;6643618;43;113089;-75
2024/05/03 14:58:43;;;;;;;3.92;0.82;;;21.80;61.70;;;;;;6634454;43;110434;-78
2024/05/03 15:03:48;;;;;;;2.90;0.80;;;21.80;61.00;;;;;;6636795;43;110054;-75
2024/05/03 15:08:53;;;;;;;3.10;0.80;;;21.80;60.90;;;;;;6637151;43;110246;-75
2024/05/03 15:14:01;;;;;;;3.42;0.90;;;21.90;60.20;;;;;;6637333;43;111756;-76
2024/05/03 15:19:06;;;;;;;3.10;0.70;;;21.80;60.00;;;;;;6643186;43;113350;-73
2024/05/03 15:24:12;;;;;;;3.00;0.80;;;21.80;60.00;;;;;;6634289;43;110755;-75
2024/05/03 15:29:20;;;;;;;3.08;0.80;;;21.80;60.10;;;;;;6637197;43;110892;-73
2024/05/03 15:34:28;;;;;;;4.38;0.80;;;21.90;60.40;;;;;;6643598;43;114523;-72
2024/05/03 15:39:34;;;;;;;2.92;0.70;;;21.80;59.80;;;;;;6633780;43;113368;-76
2024/05/03 15:44:42;;;;;;;2.35;0.73;;;21.80;59.70;;;;;;6636668;43;114896;-74
2024/05/03 15:49:47;;;;;;;3.33;0.90;;;21.90;59.90;;;;;;6641251;43;114216;-79
2024/05/03 15:54:53;;;;;;;3.92;0.80;;;21.80;59.90;;;;;;6634635;43;116084;-79
2024/05/03 16:00:01;;;;;;;2.20;0.77;;;21.90;60.00;;;;;;6634185;43;115275;-77
2024/05/03 16:05:09;;;;;;;4.95;0.90;;;21.90;60.30;;;;;;6635607;43;113242;-77
2024/05/03 16:10:15;;;;;;;3.85;0.90;;;21.90;60.60;;;;;;6637495;43;115154;-75
2024/05/03 16:15:25;;;;;;;2.33;0.60;;;21.90;60.30;;;;;;6634461;43;110373;-77
2024/05/03 16:20:30;;;;;;;2.25;0.77;;;21.90;60.50;;;;;;6637185;43;110337;-76
2024/05/03 16:25:35;;;;;;;1.92;0.68;;;22.00;62.00;;;;;;6635442;43;111236;-75
2024/05/03 16:30:43;;;;;;;4.10;0.70;;;22.10;63.10;;;;;;6635394;43;110406;-77
2024/05/03 16:35:49;;;;;;;3.72;0.80;;;22.10;62.30;;;;;;6636265;43;111537;-73
2024/05/03 16:40:54;;;;;;;2.95;0.70;;;22.20;60.80;;;;;;6641303;43;110592;-79
2024/05/03 16:46:02;;;;;;;3.28;0.73;;;22.20;60.80;;;;;;6634515;43;111456;-79
2024/05/03 16:51:08;;;;;;;3.03;0.70;;;22.20;62.20;;;;;;6640533;43;111566;-75
2024/05/03 16:56:15;;;;;;;3.97;0.93;;;22.20;62.80;;;;;;6642764;43;113452;-78
2024/05/03 17:01:23;;;;;;;3.00;0.80;;;22.20;62.00;;;;;;6633303;43;110434;-77
2024/05/03 17:06:31;;;;;;;2.28;0.77;;;22.20;61.50;;;;;;6635131;43;111603;-76
2024/05/03 17:11:40;;;;;;;2.95;0.90;;;22.20;62.80;;;;;;6635150;43;110211;-73
2024/05/03 17:16:48;;;;;;;3.33;0.93;;;22.20;63.10;;;;;;6638016;43;110609;-77
2024/05/03 17:21:53;;;;;;;3.92;0.77;;;22.20;60.70;;;;;;6635236;43;113614;-77
2024/05/03 17:26:58;;;;;;;3.83;0.70;;;22.30;60.10;;;;;;6666841;43;115491;-77
2024/05/03 17:32:07;;;;;;;2.65;0.80;;;22.30;60.20;;;;;;6636150;43;114716;-74
2024/05/03 17:37:12;;;;;;;2.80;0.80;;;22.30;60.50;;;;;;6637168;43;113632;-77
2024/05/03 17:42:17;;;;;;;3.15;0.80;;;22.30;61.30;;;;;;6635225;43;114708;-77
2024/05/03 17:47:25;;;;;;;3.10;0.82;;;22.30;61.00;;;;;;6644404;43;117658;-72
2024/05/03 17:52:30;;;;;;;2.65;0.70;;;22.40;60.90;;;;;;6644652;43;117583;-75
2024/05/03 17:57:36;;;;;;;2.08;0.60;;;22.30;61.30;;;;;;6635432;43;114657;-76
2024/05/03 18:02:44;;;;;;;2.80;0.80;;;22.40;61.10;;;;;;6638466;43;114596;-72
2024/05/03 18:07:50;;;;;;;2.38;0.70;;;22.40;60.70;;;;;;6635949;43;110972;-77
2024/05/03 18:12:56;;;;;;;3.50;0.73;;;22.40;61.00;;;;;;6636093;43;110545;-73
2024/05/03 18:18:04;;;;;;;2.15;0.70;;;22.40;60.50;;;;;;6635191;43;110649;-71
2024/05/03 18:23:09;;;;;;;2.90;0.70;;;22.40;60.70;;;;;;6639574;43;110910;-73
2024/05/03 18:28:15;;;;;;;3.50;0.80;;;22.40;61.00;;;;;;6634555;43;110448;-70
2024/05/03 18:33:23;;;;;;;4.10;0.93;;;22.40;61.80;;;;;;6635659;43;110677;-72
2024/05/03 18:38:28;;;;;;;3.53;0.82;;;22.40;61.30;;;;;;6633733;43;110533;-76
2024/05/03 18:43:33;;;;;;;2.38;0.70;;;22.40;61.30;;;;;;6637965;43;110360;-71
2024/05/03 18:48:41;;;;;;;2.60;0.70;;;22.30;60.80;;;;;;6639117;43;111921;-72
2024/05/03 18:53:47;;;;;;;4.15;0.90;;;22.30;60.60;;;;;;6633969;43;110663;-71
2024/05/03 18:58:52;;;;;;;3.40;0.80;;;22.30;60.20;;;;;;6633635;43;112173;-71
2024/05/03 19:04:00;;;;;;;3.35;0.80;;;22.30;60.00;;;;;;6636199;43;110789;-71
2024/05/03 19:09:06;;;;;;;2.90;0.80;;;22.20;60.00;;;;;;6634634;43;114424;-71
2024/05/03 19:14:11;;;;;;;3.33;0.80;;;22.20;60.00;;;;;;6633572;43;112532;-70
2024/05/03 19:19:19;;;;;;;3.13;0.80;;;22.20;61.00;;;;;;6632783;43;113751;-73
2024/05/03 19:24:24;;;;;;;3.08;0.90;;;22.10;60.20;;;;;;6636397;43;114392;-75
2024/05/03 19:29:30;;;;;;;4.07;1.00;;;22.10;60.40;;;;;;6638246;43;114533;-72
2024/05/03 19:34:38;;;;;;;3.10;0.80;;;22.00;60.20;;;;;;6633751;43;115381;-76
2024/05/03 19:39:43;;;;;;;4.55;0.90;;;22.00;60.30;;;;;;6633435;43;115424;-76
2024/05/03 19:44:49;;;;;;;3.40;1.02;;;22.00;60.00;;;;;;6643236;43;117258;-75
2024/05/03 19:49:57;;;;;;;4.00;0.80;;;21.90;60.20;;;;;;6612271;43;117413;-75
2024/05/03 19:55:02;;;;;;;3.20;0.90;;;21.90;60.40;;;;;;6655796;42;110286;-75
2024/05/03 20:00:09;;;;;;;2.72;0.82;;;21.90;60.40;;;;;;6643820;43;113444;-79
2024/05/03 20:05:17;;;;;;;2.77;0.80;;;21.80;60.60;;;;;;6636016;43;110476;-78
2024/05/03 20:10:22;;;;;;;3.72;0.82;;;21.80;60.70;;;;;;6636991;43;110138;-79
2024/05/03 20:15:27;;;;;;;3.03;1.10;;;21.80;61.00;;;;;;6644405;43;113615;-79
2024/05/03 20:20:35;;;;;;;3.70;1.02;;;21.70;60.80;;;;;;6639037;43;110332;-73
2024/05/03 20:25:40;;;;;;;4.18;1.20;;;21.70;61.10;;;;;;6637571;43;111876;-78
2024/05/03 20:30:46;;;;;;;3.50;1.13;;;21.70;61.00;;;;;;6637189;43;111030;-74
2024/05/03 20:35:54;;;;;;;3.30;1.10;;;21.60;61.10;;;;;;6635131;43;110320;-79
2024/05/03 20:40:59;;;;;;;2.85;1.10;;;21.70;61.10;;;;;;6634660;43;110994;-77
2024/05/03 20:46:04;;;;;;;4.30;1.10;;;21.60;61.20;;;;;;6634693;43;110267;-79
2024/05/03 20:51:13;;;;;;;2.85;1.10;;;21.60;61.10;;;;;;6633735;43;110957;-78
2024/05/03 20:56:18;;;;;;;4.15;1.17;;;21.60;61.30;;;;;;6636788;43;110744;-78
2024/05/03 21:01:23;;;;;;;3.28;1.10;;;21.60;61.20;;;;;;6641483;43;115561;-79
2024/05/03 21:06:31;;;;;;;3.88;1.50;;;21.60;61.20;;;;;;6657024;42;116047;-76
2024/05/03 21:11:37;;;;;;;4.75;1.10;;;21.50;61.20;;;;;;6635672;43;114556;-76
2024/05/03 21:16:45;;;;;;;4.57;1.25;;;21.50;61.10;;;;;;6634507;43;113675;-79
2024/05/03 21:21:53;;;;;;;3.25;1.20;;;21.50;61.40;;;;;;6634893;43;115226;-78
2024/05/03 21:26:58;;;;;;;4.20;1.20;;;21.50;61.30;;;;;;6643471;43;117128;-80
2024/05/03 21:32:04;;;;;;;3.90;1.23;;;21.50;61.40;;;;;;6635418;43;114711;-77
2024/05/03 21:37:12;;;;;;;2.72;1.05;;;21.50;61.40;;;;;;6636261;43;115120;-74
2024/05/03 21:42:17;;;;;;;3.35;1.00;;;21.50;61.40;;;;;;6634870;43;110473;-80
2024/05/03 21:47:22;;;;;;;3.60;1.00;;;21.40;61.40;;;;;;6634731;43;110538;-72
2024/05/03 21:52:30;;;;;;;3.95;1.00;;;21.40;61.60;;;;;;6634829;43;110623;-76
2024/05/03 21:57:36;;;;;;;4.88;1.13;;;21.40;61.40;;;;;;6633528;43;110974;-75
2024/05/03 22:02:42;;;;;;;4.32;1.13;;;21.40;61.40;;;;;;6636985;43;110649;-77
2024/05/03 22:07:50;;;;;;;4.68;1.25;;;21.40;61.60;;;;;;6634803;43;110844;-74
2024/05/03 22:12:55;;;;;;;4.72;1.10;;;21.40;61.50;;;;;;6643347;43;112646;-75
2024/05/03 22:18:01;;;;;;;3.20;1.02;;;21.40;61.60;;;;;;6637173;43;110862;-77
2024/05/03 22:23:09;;;;;;;2.35;1.00;;;21.30;61.50;;;;;;6638981;43;110334;-76
2024/05/03 22:28:14;;;;;;;2.47;1.00;;;21.30;61.40;;;;;;6636847;43;110476;-75
2024/05/03 22:33:19;;;;;;;3.25;0.90;;;21.40;61.50;;;;;;6646390;43;113117;-77
2024/05/03 22:38:34;;;;;;;5.07;1.05;;;21.40;61.60;;;;;;6643977;43;112329;-80
2024/05/03 22:43:39;;;;;;;3.85;1.10;;;21.30;61.30;;;;;;6647027;43;111918;-80
2024/05/03 22:48:45;;;;;;;4.32;1.08;;;21.30;62.10;;;;;;6636548;43;115066;-76
2024/05/03 22:53:53;;;;;;;3.13;1.00;;;21.30;61.30;;;;;;6637143;43;113276;-78
2024/05/03 22:58:58;;;;;;;3.25;1.20;;;21.30;61.30;;;;;;6636797;43;113228;-77
2024/05/03 23:04:03;;;;;;;2.92;1.00;;;21.30;61.30;;;;;;6616011;43;112619;-79
2024/05/03 23:09:11;;;;;;;3.92;1.02;;;21.30;61.30;;;;;;6658907;42;118159;-77
2024/05/03 23:14:20;;;;;;;4.35;1.08;;;21.30;61.30;;;;;;6638467;43;115889;-79
2024/05/03 23:19:25;;;;;;;4.05;1.10;;;21.20;61.20;;;;;;6636901;43;116689;-75
2024/05/03 23:24:34;;;;;;;3.17;1.00;;;21.30;61.30;;;;;;6637693;43;115184;-75
2024/05/03 23:29:41;;;;;;;3.95;1.25;;;21.20;61.20;;;;;;6641586;43;114173;-76
2024/05/03 23:34:46;;;;;;;3.60;1.20;;;21.20;61.20;;;;;;6615723;43;111099;-73
2024/05/03 23:39:54;;;;;;;4.47;1.15;;;21.20;61.30;;;;;;6638399;43;110500;-74
2024/05/03 23:45:00;;;;;;;5.07;1.20;;;21.20;61.40;;;;;;6637155;43;110655;-70
2024/05/03 23:50:06;;;;;;;4.22;1.10;;;21.20;61.30;;;;;;6640557;43;110744;-73
2024/05/03 23:55:14;;;;;;;3.45;1.20;;;21.20;61.30;;;;;;6636921;43;111069;-74
